sensor_id;sensor_type;location;lat;lon;timestamp;temperature;humidity
75994;DHT22;64680;53.800;9.988;2023-03-11T00:00:48;-0.40;76.50
75994;DHT22;64680;53.800;9.988;2023-03-11T00:03:15;-0.40;76.20
75994;DHT22;64680;53.800;9.988;2023-03-11T00:05:42;-0.40;76.30
75994;DHT22;64680;53.800;9.988;2023-03-11T00:08:12;-0.40;76.30
75994;DHT22;64680;53.800;9.988;2023-03-11T00:10:40;-0.50;76.90
75994;DHT22;64680;53.800;9.988;2023-03-11T00:13:08;-0.50;77.30
75994;DHT22;64680;53.800;9.988;2023-03-11T00:15:35;-0.50;77.60
75994;DHT22;64680;53.800;9.988;2023-03-11T00:18:01;-0.50;77.80
75994;DHT22;64680;53.800;9.988;2023-03-11T00:20:32;-0.40;79.10
75994;DHT22;64680;53.800;9.988;2023-03-11T00:22:59;-0.40;78.20
75994;DHT22;64680;53.800;9.988;2023-03-11T00:25:28;-0.40;77.30
75994;DHT22;64680;53.800;9.988;2023-03-11T00:27:55;-0.30;78.50
75994;DHT22;64680;53.800;9.988;2023-03-11T00:30:21;-0.30;76.90
75994;DHT22;64680;53.800;9.988;2023-03-11T00:32:48;-0.40;77.30
75994;DHT22;64680;53.800;9.988;2023-03-11T00:35:17;-0.40;77.80
75994;DHT22;64680;53.800;9.988;2023-03-11T00:37:43;-0.40;77.60
75994;DHT22;64680;53.800;9.988;2023-03-11T00:40:13;-0.40;77.90
75994;DHT22;64680;53.800;9.988;2023-03-11T00:42:39;-0.30;77.60
75994;DHT22;64680;53.800;9.988;2023-03-11T00:45:05;-0.40;77.30
75994;DHT22;64680;53.800;9.988;2023-03-11T00:47:31;-0.40;77.50
75994;DHT22;64680;53.800;9.988;2023-03-11T00:49:56;-0.40;77.20
75994;DHT22;64680;53.800;9.988;2023-03-11T00:52:22;-0.40;77.60
75994;DHT22;64680;53.800;9.988;2023-03-11T00:54:47;-0.30;77.90
75994;DHT22;64680;53.800;9.988;2023-03-11T00:57:13;-0.30;77.10
75994;DHT22;64680;53.800;9.988;2023-03-11T00:59:38;-0.30;77.40
75994;DHT22;64680;53.800;9.988;2023-03-11T01:02:04;-0.30;76.40
75994;DHT22;64680;53.800;9.988;2023-03-11T01:04:29;-0.40;76.80
75994;DHT22;64680;53.800;9.988;2023-03-11T01:06:55;-0.30;76.50
75994;DHT22;64680;53.800;9.988;2023-03-11T01:09:21;-0.30;75.30
75994;DHT22;64680;53.800;9.988;2023-03-11T01:11:46;-0.30;74.70
75994;DHT22;64680;53.800;9.988;2023-03-11T01:14:12;-0.30;75.40
75994;DHT22;64680;53.800;9.988;2023-03-11T01:16:38;-0.40;75.80
75994;DHT22;64680;53.800;9.988;2023-03-11T01:19:03;-0.40;77.30
75994;DHT22;64680;53.800;9.988;2023-03-11T01:21:29;-0.40;76.70
75994;DHT22;64680;53.800;9.988;2023-03-11T01:23:54;-0.40;76.20
75994;DHT22;64680;53.800;9.988;2023-03-11T01:26:20;-0.50;75.90
75994;DHT22;64680;53.800;9.988;2023-03-11T01:28:46;-0.50;75.30
75994;DHT22;64680;53.800;9.988;2023-03-11T01:31:12;-0.50;75.70
75994;DHT22;64680;53.800;9.988;2023-03-11T01:33:38;-0.60;75.00
75994;DHT22;64680;53.800;9.988;2023-03-11T01:36:04;-0.60;75.80
75994;DHT22;64680;53.800;9.988;2023-03-11T01:38:30;-0.60;75.90
75994;DHT22;64680;53.800;9.988;2023-03-11T01:40:56;-0.50;76.20
75994;DHT22;64680;53.800;9.988;2023-03-11T01:43:54;-0.60;74.80
75994;DHT22;64680;53.800;9.988;2023-03-11T01:46:21;-0.70;75.10
75994;DHT22;64680;53.800;9.988;2023-03-11T01:48:50;-0.70;76.10
75994;DHT22;64680;53.800;9.988;2023-03-11T01:51:36;-0.60;74.40
75994;DHT22;64680;53.800;9.988;2023-03-11T01:54:19;-0.60;73.50
75994;DHT22;64680;53.800;9.988;2023-03-11T01:56:45;-0.70;73.20
75994;DHT22;64680;53.800;9.988;2023-03-11T01:59:15;-0.70;73.30
75994;DHT22;64680;53.800;9.988;2023-03-11T02:02:01;-0.80;73.80
75994;DHT22;64680;53.800;9.988;2023-03-11T02:04:32;-0.80;72.60
75994;DHT22;64680;53.800;9.988;2023-03-11T02:06:59;-0.90;73.10
75994;DHT22;64680;53.800;9.988;2023-03-11T02:09:25;-0.90;73.80
75994;DHT22;64680;53.800;9.988;2023-03-11T02:11:51;-0.80;72.40
75994;DHT22;64680;53.800;9.988;2023-03-11T02:14:18;-0.80;73.40
75994;DHT22;64680;53.800;9.988;2023-03-11T02:16:44;-0.80;72.00
75994;DHT22;64680;53.800;9.988;2023-03-11T02:19:36;-0.90;73.30
75994;DHT22;64680;53.800;9.988;2023-03-11T02:22:05;-0.70;72.80
75994;DHT22;64680;53.800;9.988;2023-03-11T02:27:17;-0.80;71.90
75994;DHT22;64680;53.800;9.988;2023-03-11T02:29:45;-0.80;72.60
75994;DHT22;64680;53.800;9.988;2023-03-11T02:32:14;-0.80;73.40
75994;DHT22;64680;53.800;9.988;2023-03-11T02:34:40;-0.80;74.10
75994;DHT22;64680;53.800;9.988;2023-03-11T02:37:09;-0.80;74.40
75994;DHT22;64680;53.800;9.988;2023-03-11T02:39:41;-0.90;73.50
75994;DHT22;64680;53.800;9.988;2023-03-11T02:44:39;-0.80;73.90
75994;DHT22;64680;53.800;9.988;2023-03-11T02:47:06;-0.90;74.40
75994;DHT22;64680;53.800;9.988;2023-03-11T02:49:32;-0.90;75.50
75994;DHT22;64680;53.800;9.988;2023-03-11T02:51:58;-0.90;74.50
75994;DHT22;64680;53.800;9.988;2023-03-11T02:54:24;-0.90;73.00
75994;DHT22;64680;53.800;9.988;2023-03-11T02:56:50;-0.80;70.90
75994;DHT22;64680;53.800;9.988;2023-03-11T02:59:15;-0.90;71.50
75994;DHT22;64680;53.800;9.988;2023-03-11T03:01:41;-0.90;71.20
75994;DHT22;64680;53.800;9.988;2023-03-11T03:04:07;-0.90;71.40
75994;DHT22;64680;53.800;9.988;2023-03-11T03:06:33;-0.90;70.90
75994;DHT22;64680;53.800;9.988;2023-03-11T03:08:58;-0.90;71.30
75994;DHT22;64680;53.800;9.988;2023-03-11T03:11:24;-0.90;72.70
75994;DHT22;64680;53.800;9.988;2023-03-11T03:13:49;-0.80;70.60
75994;DHT22;64680;53.800;9.988;2023-03-11T03:16:15;-0.80;68.40
75994;DHT22;64680;53.800;9.988;2023-03-11T03:18:40;-0.90;69.50
75994;DHT22;64680;53.800;9.988;2023-03-11T03:21:06;-0.90;69.90
75994;DHT22;64680;53.800;9.988;2023-03-11T03:23:32;-0.90;71.50
75994;DHT22;64680;53.800;9.988;2023-03-11T03:26:00;-0.80;70.20
75994;DHT22;64680;53.800;9.988;2023-03-11T03:28:26;-0.90;70.60
75994;DHT22;64680;53.800;9.988;2023-03-11T03:30:52;-0.90;71.60
75994;DHT22;64680;53.800;9.988;2023-03-11T03:33:17;-0.90;72.30
75994;DHT22;64680;53.800;9.988;2023-03-11T03:35:44;-0.90;72.70
75994;DHT22;64680;53.800;9.988;2023-03-11T03:38:10;-0.90;74.40
75994;DHT22;64680;53.800;9.988;2023-03-11T03:40:36;-0.80;73.80
75994;DHT22;64680;53.800;9.988;2023-03-11T03:43:02;-0.90;73.30
75994;DHT22;64680;53.800;9.988;2023-03-11T03:45:28;-0.90;74.10
75994;DHT22;64680;53.800;9.988;2023-03-11T03:47:54;-0.90;73.60
75994;DHT22;64680;53.800;9.988;2023-03-11T03:50:19;-0.90;73.90
75994;DHT22;64680;53.800;9.988;2023-03-11T03:52:45;-0.90;74.40
75994;DHT22;64680;53.800;9.988;2023-03-11T03:55:10;-0.90;74.20
75994;DHT22;64680;53.800;9.988;2023-03-11T03:57:36;-0.90;74.00
75994;DHT22;64680;53.800;9.988;2023-03-11T04:00:03;-0.90;74.30
75994;DHT22;64680;53.800;9.988;2023-03-11T04:02:30;-1.00;74.40
75994;DHT22;64680;53.800;9.988;2023-03-11T04:04:56;-1.00;74.50
75994;DHT22;64680;53.800;9.988;2023-03-11T04:07:22;-1.00;74.70
75994;DHT22;64680;53.800;9.988;2023-03-11T04:09:47;-1.00;73.70
75994;DHT22;64680;53.800;9.988;2023-03-11T04:12:14;-1.00;73.20
75994;DHT22;64680;53.800;9.988;2023-03-11T04:14:40;-1.10;71.90
75994;DHT22;64680;53.800;9.988;2023-03-11T04:17:07;-1.10;71.50
75994;DHT22;64680;53.800;9.988;2023-03-11T04:19:33;-1.30;71.60
75994;DHT22;64680;53.800;9.988;2023-03-11T04:21:58;-1.30;72.30
75994;DHT22;64680;53.800;9.988;2023-03-11T04:24:24;-1.40;71.80
75994;DHT22;64680;53.800;9.988;2023-03-11T04:26:49;-1.50;71.90
75994;DHT22;64680;53.800;9.988;2023-03-11T04:29:15;-1.60;72.10
75994;DHT22;64680;53.800;9.988;2023-03-11T04:31:40;-1.60;73.20
75994;DHT22;64680;53.800;9.988;2023-03-11T04:34:06;-1.60;72.30
75994;DHT22;64680;53.800;9.988;2023-03-11T04:36:32;-1.70;72.80
75994;DHT22;64680;53.800;9.988;2023-03-11T04:38:57;-1.70;73.30
75994;DHT22;64680;53.800;9.988;2023-03-11T04:41:23;-1.80;73.70
75994;DHT22;64680;53.800;9.988;2023-03-11T04:43:48;-1.80;74.00
75994;DHT22;64680;53.800;9.988;2023-03-11T04:46:14;-1.90;74.50
75994;DHT22;64680;53.800;9.988;2023-03-11T04:48:40;-1.90;74.70
75994;DHT22;64680;53.800;9.988;2023-03-11T04:51:06;-1.90;75.00
75994;DHT22;64680;53.800;9.988;2023-03-11T04:53:32;-1.90;75.30
75994;DHT22;64680;53.800;9.988;2023-03-11T04:55:58;-1.90;76.10
75994;DHT22;64680;53.800;9.988;2023-03-11T04:58:23;-1.80;76.60
75994;DHT22;64680;53.800;9.988;2023-03-11T05:00:50;-1.80;77.70
75994;DHT22;64680;53.800;9.988;2023-03-11T05:03:16;-1.80;77.00
75994;DHT22;64680;53.800;9.988;2023-03-11T05:05:42;-1.80;76.90
75994;DHT22;64680;53.800;9.988;2023-03-11T05:08:08;-1.80;77.00
75994;DHT22;64680;53.800;9.988;2023-03-11T05:10:34;-1.80;76.90
75994;DHT22;64680;53.800;9.988;2023-03-11T05:12:59;-1.80;76.50
75994;DHT22;64680;53.800;9.988;2023-03-11T05:15:25;-1.90;76.10
75994;DHT22;64680;53.800;9.988;2023-03-11T05:17:51;-2.00;75.70
75994;DHT22;64680;53.800;9.988;2023-03-11T05:20:17;-2.00;75.40
75994;DHT22;64680;53.800;9.988;2023-03-11T05:22:42;-2.10;75.00
75994;DHT22;64680;53.800;9.988;2023-03-11T05:25:08;-2.20;74.50
75994;DHT22;64680;53.800;9.988;2023-03-11T05:27:34;-2.20;74.30
75994;DHT22;64680;53.800;9.988;2023-03-11T05:29:59;-2.30;74.10
75994;DHT22;64680;53.800;9.988;2023-03-11T05:32:25;-2.30;73.90
75994;DHT22;64680;53.800;9.988;2023-03-11T05:34:52;-2.40;73.50
75994;DHT22;64680;53.800;9.988;2023-03-11T05:37:17;-2.40;73.70
75994;DHT22;64680;53.800;9.988;2023-03-11T05:39:43;-2.50;73.80
75994;DHT22;64680;53.800;9.988;2023-03-11T05:42:09;-2.50;73.80
75994;DHT22;64680;53.800;9.988;2023-03-11T05:44:34;-2.60;73.50
75994;DHT22;64680;53.800;9.988;2023-03-11T05:47:00;-2.70;73.40
75994;DHT22;64680;53.800;9.988;2023-03-11T05:49:26;-2.70;73.30
75994;DHT22;64680;53.800;9.988;2023-03-11T05:51:52;-2.70;73.20
75994;DHT22;64680;53.800;9.988;2023-03-11T05:54:18;-2.80;73.30
75994;DHT22;64680;53.800;9.988;2023-03-11T05:56:45;-2.80;73.30
75994;DHT22;64680;53.800;9.988;2023-03-11T05:59:12;-2.80;73.20
75994;DHT22;64680;53.800;9.988;2023-03-11T06:01:39;-2.80;73.30
75994;DHT22;64680;53.800;9.988;2023-03-11T06:04:05;-2.80;73.60
75994;DHT22;64680;53.800;9.988;2023-03-11T06:06:31;-2.90;73.70
75994;DHT22;64680;53.800;9.988;2023-03-11T06:08:57;-2.80;73.50
75994;DHT22;64680;53.800;9.988;2023-03-11T06:11:22;-2.80;73.70
75994;DHT22;64680;53.800;9.988;2023-03-11T06:13:52;-2.90;73.60
75994;DHT22;64680;53.800;9.988;2023-03-11T06:16:19;-2.80;73.70
75994;DHT22;64680;53.800;9.988;2023-03-11T06:18:44;-2.80;73.40
75994;DHT22;64680;53.800;9.988;2023-03-11T06:21:15;-2.80;73.30
75994;DHT22;64680;53.800;9.988;2023-03-11T06:23:41;-2.80;73.20
75994;DHT22;64680;53.800;9.988;2023-03-11T06:26:07;-2.70;73.50
75994;DHT22;64680;53.800;9.988;2023-03-11T06:28:32;-2.50;72.90
75994;DHT22;64680;53.800;9.988;2023-03-11T06:31:09;-2.40;72.30
75994;DHT22;64680;53.800;9.988;2023-03-11T06:33:35;-2.20;70.90
75994;DHT22;64680;53.800;9.988;2023-03-11T06:36:02;-2.20;68.20
75994;DHT22;64680;53.800;9.988;2023-03-11T06:38:28;-2.10;66.00
75994;DHT22;64680;53.800;9.988;2023-03-11T06:40:53;-2.10;64.40
75994;DHT22;64680;53.800;9.988;2023-03-11T06:43:22;-2.10;64.10
75994;DHT22;64680;53.800;9.988;2023-03-11T06:45:48;-1.80;63.30
75994;DHT22;64680;53.800;9.988;2023-03-11T06:48:13;-1.60;59.30
75994;DHT22;64680;53.800;9.988;2023-03-11T06:50:39;-1.20;56.10
75994;DHT22;64680;53.800;9.988;2023-03-11T06:53:05;-1.00;50.30
75994;DHT22;64680;53.800;9.988;2023-03-11T06:55:32;-0.70;46.10
75994;DHT22;64680;53.800;9.988;2023-03-11T06:57:58;-0.50;42.20
75994;DHT22;64680;53.800;9.988;2023-03-11T07:00:23;-0.40;40.60
75994;DHT22;64680;53.800;9.988;2023-03-11T07:02:49;-0.10;39.20
75994;DHT22;64680;53.800;9.988;2023-03-11T07:05:15;0.00;38.20
75994;DHT22;64680;53.800;9.988;2023-03-11T07:07:41;0.40;33.80
75994;DHT22;64680;53.800;9.988;2023-03-11T07:10:07;0.70;28.40
75994;DHT22;64680;53.800;9.988;2023-03-11T07:12:33;0.90;28.00
75994;DHT22;64680;53.800;9.988;2023-03-11T07:14:59;1.00;29.80
75994;DHT22;64680;53.800;9.988;2023-03-11T07:17:25;1.50;22.70
75994;DHT22;64680;53.800;9.988;2023-03-11T07:19:51;1.80;20.30
75994;DHT22;64680;53.800;9.988;2023-03-11T07:22:18;2.10;19.10
75994;DHT22;64680;53.800;9.988;2023-03-11T07:24:47;2.60;14.00
75994;DHT22;64680;53.800;9.988;2023-03-11T07:27:13;2.90;11.00
75994;DHT22;64680;53.800;9.988;2023-03-11T07:29:39;3.10;8.20
75994;DHT22;64680;53.800;9.988;2023-03-11T07:32:07;3.40;2.10
75994;DHT22;64680;53.800;9.988;2023-03-11T07:34:36;3.50;2.50
75994;DHT22;64680;53.800;9.988;2023-03-11T07:37:02;4.00;1.00
75994;DHT22;64680;53.800;9.988;2023-03-11T07:39:28;4.20;1.00
75994;DHT22;64680;53.800;9.988;2023-03-11T07:41:53;4.50;1.00
75994;DHT22;64680;53.800;9.988;2023-03-11T07:44:19;4.80;1.00
75994;DHT22;64680;53.800;9.988;2023-03-11T07:46:45;5.30;1.00
75994;DHT22;64680;53.800;9.988;2023-03-11T07:49:11;5.40;1.00
75994;DHT22;64680;53.800;9.988;2023-03-11T07:51:38;5.60;1.00
75994;DHT22;64680;53.800;9.988;2023-03-11T07:54:05;5.50;1.00
75994;DHT22;64680;53.800;9.988;2023-03-11T07:56:33;4.90;1.00
75994;DHT22;64680;53.800;9.988;2023-03-11T07:59:00;4.20;1.00
75994;DHT22;64680;53.800;9.988;2023-03-11T08:01:28;3.70;1.00
75994;DHT22;64680;53.800;9.988;2023-03-11T08:04:01;4.40;1.00
75994;DHT22;64680;53.800;9.988;2023-03-11T08:06:29;5.10;1.00
75994;DHT22;64680;53.800;9.988;2023-03-11T08:08:57;5.50;1.00
75994;DHT22;64680;53.800;9.988;2023-03-11T08:11:24;5.80;1.00
75994;DHT22;64680;53.800;9.988;2023-03-11T08:13:49;6.20;1.00
75994;DHT22;64680;53.800;9.988;2023-03-11T08:16:18;6.70;1.00
75994;DHT22;64680;53.800;9.988;2023-03-11T08:18:44;6.70;1.00
75994;DHT22;64680;53.800;9.988;2023-03-11T08:21:22;6.60;1.00
75994;DHT22;64680;53.800;9.988;2023-03-11T08:23:49;6.70;1.00
75994;DHT22;64680;53.800;9.988;2023-03-11T08:26:18;6.60;1.00
75994;DHT22;64680;53.800;9.988;2023-03-11T08:28:44;6.80;1.00
75994;DHT22;64680;53.800;9.988;2023-03-11T08:31:14;7.30;1.00
75994;DHT22;64680;53.800;9.988;2023-03-11T08:33:41;7.50;1.00
75994;DHT22;64680;53.800;9.988;2023-03-11T08:36:07;7.50;1.00
75994;DHT22;64680;53.800;9.988;2023-03-11T08:38:33;7.80;1.00
75994;DHT22;64680;53.800;9.988;2023-03-11T08:40:59;7.90;1.00
75994;DHT22;64680;53.800;9.988;2023-03-11T08:43:25;7.70;1.00
75994;DHT22;64680;53.800;9.988;2023-03-11T08:45:51;8.00;1.00
75994;DHT22;64680;53.800;9.988;2023-03-11T08:48:17;7.90;1.00
75994;DHT22;64680;53.800;9.988;2023-03-11T08:50:43;8.20;1.00
75994;DHT22;64680;53.800;9.988;2023-03-11T08:53:09;8.50;1.00
75994;DHT22;64680;53.800;9.988;2023-03-11T08:55:35;8.40;1.00
75994;DHT22;64680;53.800;9.988;2023-03-11T08:58:01;8.90;1.00
75994;DHT22;64680;53.800;9.988;2023-03-11T09:00:27;9.00;1.00
75994;DHT22;64680;53.800;9.988;2023-03-11T09:02:52;9.50;1.00
75994;DHT22;64680;53.800;9.988;2023-03-11T09:05:18;9.20;1.00
75994;DHT22;64680;53.800;9.988;2023-03-11T09:07:44;9.20;1.00
75994;DHT22;64680;53.800;9.988;2023-03-11T09:10:12;9.60;1.00
75994;DHT22;64680;53.800;9.988;2023-03-11T09:12:39;9.50;1.00
75994;DHT22;64680;53.800;9.988;2023-03-11T09:15:05;9.50;1.00
75994;DHT22;64680;53.800;9.988;2023-03-11T09:17:31;9.30;1.00
75994;DHT22;64680;53.800;9.988;2023-03-11T09:19:57;9.50;1.00
75994;DHT22;64680;53.800;9.988;2023-03-11T09:22:22;9.50;1.00
75994;DHT22;64680;53.800;9.988;2023-03-11T09:24:49;9.40;1.00
75994;DHT22;64680;53.800;9.988;2023-03-11T09:27:15;9.40;1.00
75994;DHT22;64680;53.800;9.988;2023-03-11T09:29:41;9.00;1.00
75994;DHT22;64680;53.800;9.988;2023-03-11T09:32:07;9.00;1.00
75994;DHT22;64680;53.800;9.988;2023-03-11T09:34:34;9.10;1.00
75994;DHT22;64680;53.800;9.988;2023-03-11T09:37:00;8.60;1.00
75994;DHT22;64680;53.800;9.988;2023-03-11T09:39:26;8.50;1.00
75994;DHT22;64680;53.800;9.988;2023-03-11T09:41:54;8.30;1.00
75994;DHT22;64680;53.800;9.988;2023-03-11T09:53:03;7.90;1.00
75994;DHT22;64680;53.800;9.988;2023-03-11T09:55:42;8.40;1.00
75994;DHT22;64680;53.800;9.988;2023-03-11T09:58:25;8.10;1.00
75994;DHT22;64680;53.800;9.988;2023-03-11T10:00:55;7.70;1.00
75994;DHT22;64680;53.800;9.988;2023-03-11T10:03:33;7.50;1.00
75994;DHT22;64680;53.800;9.988;2023-03-11T10:06:16;7.10;1.00
75994;DHT22;64680;53.800;9.988;2023-03-11T10:14:32;5.80;1.00
75994;DHT22;64680;53.800;9.988;2023-03-11T10:20:00;5.20;1.00
75994;DHT22;64680;53.800;9.988;2023-03-11T10:25:16;5.30;1.00
75994;DHT22;64680;53.800;9.988;2023-03-11T10:27:50;5.10;1.00
75994;DHT22;64680;53.800;9.988;2023-03-11T10:30:32;5.00;1.00
75994;DHT22;64680;53.800;9.988;2023-03-11T10:35:38;4.80;1.00
75994;DHT22;64680;53.800;9.988;2023-03-11T10:38:30;4.70;1.00
75994;DHT22;64680;53.800;9.988;2023-03-11T10:41:02;4.50;1.00
75994;DHT22;64680;53.800;9.988;2023-03-11T10:43:45;4.60;1.00
75994;DHT22;64680;53.800;9.988;2023-03-11T10:46:20;4.70;1.00
75994;DHT22;64680;53.800;9.988;2023-03-11T10:48:47;4.80;1.00
75994;DHT22;64680;53.800;9.988;2023-03-11T10:51:22;4.80;1.00
75994;DHT22;64680;53.800;9.988;2023-03-11T10:53:51;5.00;1.00
75994;DHT22;64680;53.800;9.988;2023-03-11T10:58:55;5.00;1.00
75994;DHT22;64680;53.800;9.988;2023-03-11T11:01:22;5.10;1.00
75994;DHT22;64680;53.800;9.988;2023-03-11T11:03:51;5.30;1.00
75994;DHT22;64680;53.800;9.988;2023-03-11T11:06:29;5.20;1.00
75994;DHT22;64680;53.800;9.988;2023-03-11T11:09:18;5.20;1.00
75994;DHT22;64680;53.800;9.988;2023-03-11T11:12:03;5.30;1.00
75994;DHT22;64680;53.800;9.988;2023-03-11T11:17:22;5.50;1.00
75994;DHT22;64680;53.800;9.988;2023-03-11T11:19:48;5.60;1.00
75994;DHT22;64680;53.800;9.988;2023-03-11T11:22:17;5.50;1.00
75994;DHT22;64680;53.800;9.988;2023-03-11T11:24:44;5.50;1.00
75994;DHT22;64680;53.800;9.988;2023-03-11T11:29:45;5.80;1.00
75994;DHT22;64680;53.800;9.988;2023-03-11T11:34:57;5.80;1.00
75994;DHT22;64680;53.800;9.988;2023-03-11T11:37:24;5.90;1.00
75994;DHT22;64680;53.800;9.988;2023-03-11T11:39:57;6.30;1.00
75994;DHT22;64680;53.800;9.988;2023-03-11T11:42:25;6.40;1.00
75994;DHT22;64680;53.800;9.988;2023-03-11T11:44:58;6.50;1.00
75994;DHT22;64680;53.800;9.988;2023-03-11T11:47:33;6.30;1.00
75994;DHT22;64680;53.800;9.988;2023-03-11T11:50:02;6.30;1.00
75994;DHT22;64680;53.800;9.988;2023-03-11T11:52:41;6.90;1.00
75994;DHT22;64680;53.800;9.988;2023-03-11T11:55:23;7.00;1.00
75994;DHT22;64680;53.800;9.988;2023-03-11T11:57:50;6.80;1.00
75994;DHT22;64680;53.800;9.988;2023-03-11T12:00:20;6.80;1.00
75994;DHT22;64680;53.800;9.988;2023-03-11T12:05:31;6.80;1.00
75994;DHT22;64680;53.800;9.988;2023-03-11T12:08:12;7.60;1.00
75994;DHT22;64680;53.800;9.988;2023-03-11T12:18:28;7.90;1.00
75994;DHT22;64680;53.800;9.988;2023-03-11T12:20:57;7.90;1.00
75994;DHT22;64680;53.800;9.988;2023-03-11T12:26:19;7.50;1.00
75994;DHT22;64680;53.800;9.988;2023-03-11T12:29:02;7.60;1.00
75994;DHT22;64680;53.800;9.988;2023-03-11T12:31:35;7.80;1.00
75994;DHT22;64680;53.800;9.988;2023-03-11T12:34:05;7.90;1.00
75994;DHT22;64680;53.800;9.988;2023-03-11T12:36:43;7.10;1.00
75994;DHT22;64680;53.800;9.988;2023-03-11T12:39:20;7.00;1.00
75994;DHT22;64680;53.800;9.988;2023-03-11T12:41:46;6.60;1.00
75994;DHT22;64680;53.800;9.988;2023-03-11T12:44:28;6.30;1.00
75994;DHT22;64680;53.800;9.988;2023-03-11T12:49:30;5.40;1.00
75994;DHT22;64680;53.800;9.988;2023-03-11T12:52:06;5.40;1.00
75994;DHT22;64680;53.800;9.988;2023-03-11T12:54:45;5.50;1.00
75994;DHT22;64680;53.800;9.988;2023-03-11T13:05:26;7.10;1.00
75994;DHT22;64680;53.800;9.988;2023-03-11T13:13:02;7.90;1.00
75994;DHT22;64680;53.800;9.988;2023-03-11T13:15:46;7.80;1.00
75994;DHT22;64680;53.800;9.988;2023-03-11T13:26:11;7.00;1.00
75994;DHT22;64680;53.800;9.988;2023-03-11T13:33:53;6.30;1.00
75994;DHT22;64680;53.800;9.988;2023-03-11T13:36:38;6.00;1.00
75994;DHT22;64680;53.800;9.988;2023-03-11T13:41:55;5.90;1.00
75994;DHT22;64680;53.800;9.988;2023-03-11T13:44:25;6.20;1.00
75994;DHT22;64680;53.800;9.988;2023-03-11T13:47:02;5.90;1.00
75994;DHT22;64680;53.800;9.988;2023-03-11T13:49:47;5.60;1.00
75994;DHT22;64680;53.800;9.988;2023-03-11T13:52:50;5.30;1.00
75994;DHT22;64680;53.800;9.988;2023-03-11T13:55:35;5.10;1.00
75994;DHT22;64680;53.800;9.988;2023-03-11T13:58:25;5.00;1.00
75994;DHT22;64680;53.800;9.988;2023-03-11T14:01:00;4.70;1.00
75994;DHT22;64680;53.800;9.988;2023-03-11T14:03:34;4.50;1.00
75994;DHT22;64680;53.800;9.988;2023-03-11T14:06:05;4.30;1.00
75994;DHT22;64680;53.800;9.988;2023-03-11T14:08:34;4.40;1.00
75994;DHT22;64680;53.800;9.988;2023-03-11T14:11:24;4.60;1.00
75994;DHT22;64680;53.800;9.988;2023-03-11T14:13:50;4.60;1.00
75994;DHT22;64680;53.800;9.988;2023-03-11T14:16:35;5.10;1.00
75994;DHT22;64680;53.800;9.988;2023-03-11T14:19:13;5.40;1.00
75994;DHT22;64680;53.800;9.988;2023-03-11T14:21:44;5.30;1.00
75994;DHT22;64680;53.800;9.988;2023-03-11T14:24:21;5.00;1.00
75994;DHT22;64680;53.800;9.988;2023-03-11T14:26:48;5.00;1.00
75994;DHT22;64680;53.800;9.988;2023-03-11T14:29:17;5.40;1.00
75994;DHT22;64680;53.800;9.988;2023-03-11T14:31:44;5.70;1.00
75994;DHT22;64680;53.800;9.988;2023-03-11T14:34:14;6.00;1.00
75994;DHT22;64680;53.800;9.988;2023-03-11T14:41:58;5.50;1.00
75994;DHT22;64680;53.800;9.988;2023-03-11T14:44:26;5.30;1.00
75994;DHT22;64680;53.800;9.988;2023-03-11T14:46:59;5.40;1.00
75994;DHT22;64680;53.800;9.988;2023-03-11T14:49:27;5.60;1.00
75994;DHT22;64680;53.800;9.988;2023-03-11T14:52:07;5.70;1.00
75994;DHT22;64680;53.800;9.988;2023-03-11T14:54:35;5.60;1.00
75994;DHT22;64680;53.800;9.988;2023-03-11T14:57:20;5.60;1.00
75994;DHT22;64680;53.800;9.988;2023-03-11T14:59:50;5.80;1.00
75994;DHT22;64680;53.800;9.988;2023-03-11T15:02:29;6.00;1.00
75994;DHT22;64680;53.800;9.988;2023-03-11T15:04:56;6.20;1.00
75994;DHT22;64680;53.800;9.988;2023-03-11T15:07:22;6.10;1.00
75994;DHT22;64680;53.800;9.988;2023-03-11T15:09:48;6.10;1.00
75994;DHT22;64680;53.800;9.988;2023-03-11T15:12:34;5.90;1.00
75994;DHT22;64680;53.800;9.988;2023-03-11T15:15:00;5.50;1.00
75994;DHT22;64680;53.800;9.988;2023-03-11T15:17:27;5.30;1.00
75994;DHT22;64680;53.800;9.988;2023-03-11T15:19:56;5.30;1.00
75994;DHT22;64680;53.800;9.988;2023-03-11T15:22:34;5.50;1.00
75994;DHT22;64680;53.800;9.988;2023-03-11T15:25:01;5.70;1.00
75994;DHT22;64680;53.800;9.988;2023-03-11T15:27:35;5.80;1.00
75994;DHT22;64680;53.800;9.988;2023-03-11T15:30:03;5.80;1.00
75994;DHT22;64680;53.800;9.988;2023-03-11T15:37:32;5.00;1.00
75994;DHT22;64680;53.800;9.988;2023-03-11T15:42:37;4.40;1.00
75994;DHT22;64680;53.800;9.988;2023-03-11T15:45:16;4.30;1.00
75994;DHT22;64680;53.800;9.988;2023-03-11T15:47:43;3.90;1.00
75994;DHT22;64680;53.800;9.988;2023-03-11T15:50:19;3.50;1.80
75994;DHT22;64680;53.800;9.988;2023-03-11T15:52:47;3.40;4.60
75994;DHT22;64680;53.800;9.988;2023-03-11T15:55:13;3.20;6.90
75994;DHT22;64680;53.800;9.988;2023-03-11T15:57:39;3.20;7.20
75994;DHT22;64680;53.800;9.988;2023-03-11T16:00:15;3.00;8.30
75994;DHT22;64680;53.800;9.988;2023-03-11T16:02:42;3.00;7.60
75994;DHT22;64680;53.800;9.988;2023-03-11T16:05:22;2.90;8.60
75994;DHT22;64680;53.800;9.988;2023-03-11T16:07:48;2.90;10.20
75994;DHT22;64680;53.800;9.988;2023-03-11T16:10:19;3.00;8.40
75994;DHT22;64680;53.800;9.988;2023-03-11T16:12:45;3.00;5.70
75994;DHT22;64680;53.800;9.988;2023-03-11T16:15:22;3.10;4.40
75994;DHT22;64680;53.800;9.988;2023-03-11T16:17:50;3.20;3.00
75994;DHT22;64680;53.800;9.988;2023-03-11T16:20:18;3.20;2.70
75994;DHT22;64680;53.800;9.988;2023-03-11T16:22:45;3.10;1.00
75994;DHT22;64680;53.800;9.988;2023-03-11T16:25:25;3.10;1.00
75994;DHT22;64680;53.800;9.988;2023-03-11T16:27:53;3.00;1.00
75994;DHT22;64680;53.800;9.988;2023-03-11T16:30:19;3.00;1.00
75994;DHT22;64680;53.800;9.988;2023-03-11T16:32:45;2.90;1.00
75994;DHT22;64680;53.800;9.988;2023-03-11T16:35:11;2.80;2.50
75994;DHT22;64680;53.800;9.988;2023-03-11T16:37:38;2.80;2.60
75994;DHT22;64680;53.800;9.988;2023-03-11T16:40:04;2.70;4.00
75994;DHT22;64680;53.800;9.988;2023-03-11T16:42:32;2.70;4.30
75994;DHT22;64680;53.800;9.988;2023-03-11T16:44:58;2.70;5.10
75994;DHT22;64680;53.800;9.988;2023-03-11T16:47:23;2.70;7.40
75994;DHT22;64680;53.800;9.988;2023-03-11T16:49:49;2.70;7.70
75994;DHT22;64680;53.800;9.988;2023-03-11T16:52:18;2.70;8.30
75994;DHT22;64680;53.800;9.988;2023-03-11T16:54:48;2.60;9.20
75994;DHT22;64680;53.800;9.988;2023-03-11T16:57:14;2.60;9.60
75994;DHT22;64680;53.800;9.988;2023-03-11T16:59:40;2.50;11.40
75994;DHT22;64680;53.800;9.988;2023-03-11T17:02:11;2.50;12.60
75994;DHT22;64680;53.800;9.988;2023-03-11T17:04:37;2.50;14.60
75994;DHT22;64680;53.800;9.988;2023-03-11T17:07:04;2.60;14.40
75994;DHT22;64680;53.800;9.988;2023-03-11T17:09:30;2.70;13.60
75994;DHT22;64680;53.800;9.988;2023-03-11T17:11:56;2.70;12.20
75994;DHT22;64680;53.800;9.988;2023-03-11T17:14:22;2.80;11.70
75994;DHT22;64680;53.800;9.988;2023-03-11T17:16:48;2.80;11.90
75994;DHT22;64680;53.800;9.988;2023-03-11T17:19:14;2.80;11.40
75994;DHT22;64680;53.800;9.988;2023-03-11T17:21:41;2.80;11.50
75994;DHT22;64680;53.800;9.988;2023-03-11T17:24:07;2.80;12.00
75994;DHT22;64680;53.800;9.988;2023-03-11T17:26:33;2.80;11.90
75994;DHT22;64680;53.800;9.988;2023-03-11T17:28:59;2.90;12.70
75994;DHT22;64680;53.800;9.988;2023-03-11T17:31:24;2.90;12.10
75994;DHT22;64680;53.800;9.988;2023-03-11T17:33:50;2.90;12.60